Time;durP1;ratioP1;P1;durP2;ratioP2;P2;SDS_P1;SDS_P2;PMS_P1;PMS_P2;Temp;Humidity;BMP_temperature;BMP_pressure;BME280_temperature;BME280_humidity;BME280_pressure;Samples;Min_cycle;Max_cycle;Signal;HPM_P1;HPM_P2
2022/02/11 00:01:12;;;;;;;2.47;1.00;;;18.40;61.90;;;;;;5068733;28;20643;-67
2022/02/11 00:06:56;;;;;;;2.40;1.17;;;18.40;61.90;;;;;;5070659;28;20220;-67
2022/02/11 00:09:26;;;;;;;2.67;1.50;;;18.40;61.90;;;;;;5060924;28;20283;-66
2022/02/11 00:11:58;;;;;;;1.30;0.90;;;18.40;62.00;;;;;;5066723;28;20275;-66
2022/02/11 00:14:34;;;;;;;1.40;1.10;;;18.40;62.10;;;;;;5066368;28;20754;-67
2022/02/11 00:17:05;;;;;;;1.87;1.10;;;18.30;61.90;;;;;;5064147;28;20204;-67
2022/02/11 00:19:35;;;;;;;1.40;1.30;;;18.30;61.90;;;;;;5060841;28;20547;-67
2022/02/11 00:22:09;;;;;;;2.20;1.30;;;18.30;61.90;;;;;;5062334;28;20245;-66
2022/02/11 00:24:41;;;;;;;1.43;1.00;;;18.30;62.00;;;;;;5039853;28;20557;-66
2022/02/11 00:30:46;;;;;;;1.53;1.27;;;18.20;61.90;;;;;;5063924;28;20194;-72
2022/02/11 00:35:59;;;;;;;1.20;1.10;;;18.20;61.90;;;;;;5053730;28;20200;-66
2022/02/11 00:38:45;;;;;;;1.40;1.10;;;18.20;61.90;;;;;;5064285;28;20209;-66
2022/02/11 00:53:21;;;;;;;1.10;0.83;;;18.10;61.90;;;;;;5054282;28;20230;-67
2022/02/11 00:53:37;;;;;;;1.30;1.10;;;18.10;61.90;;;;;;5068654;28;20201;-67
2022/02/11 01:02:10;;;;;;;1.20;1.10;;;18.10;61.90;;;;;;5051078;28;20201;-67
2022/02/11 01:04:19;;;;;;;1.73;1.30;;;18.00;61.90;;;;;;5024631;28;20305;-67
2022/02/11 01:06:49;;;;;;;1.50;1.30;;;18.10;61.90;;;;;;5064953;28;20221;-67
2022/02/11 01:09:24;;;;;;;1.77;1.10;;;18.00;61.90;;;;;;5063242;28;20220;-67
2022/02/11 01:11:57;;;;;;;1.63;1.40;;;18.00;61.90;;;;;;5055673;28;20274;-66
2022/02/11 01:14:34;;;;;;;1.70;1.20;;;18.00;61.80;;;;;;5067106;28;20260;-66
2022/02/11 01:17:17;;;;;;;1.43;1.10;;;18.00;61.80;;;;;;5069304;28;20202;-68
2022/02/11 01:20:15;;;;;;;2.90;1.00;;;18.00;61.80;;;;;;5059332;28;20216;-67
2022/02/11 01:31:40;;;;;;;1.60;1.23;;;17.90;61.70;;;;;;5042612;28;20210;-67
2022/02/11 01:37:23;;;;;;;1.57;1.13;;;17.90;61.70;;;;;;5059705;28;20497;-66
2022/02/11 01:54:29;;;;;;;2.00;1.37;;;17.90;61.90;;;;;;5046485;28;20212;-67
2022/02/11 01:57:09;;;;;;;1.73;1.30;;;17.80;61.80;;;;;;5049095;28;20485;-67
2022/02/11 02:06:10;;;;;;;1.20;1.10;;;17.80;61.80;;;;;;5067495;28;20654;-67
2022/02/11 02:09:20;;;;;;;1.60;1.50;;;17.80;61.70;;;;;;5056888;28;20196;-67
2022/02/11 02:26:04;;;;;;;1.20;1.10;;;17.70;61.70;;;;;;5025232;28;20238;-67
2022/02/11 02:59:03;;;;;;;2.83;1.43;;;17.60;61.60;;;;;;5040975;28;20292;-67
2022/02/11 03:35:37;;;;;;;1.63;1.30;;;17.50;61.40;;;;;;5039945;28;20233;-67
2022/02/11 03:50:05;;;;;;;1.60;1.20;;;17.50;61.50;;;;;;5023660;28;20207;-67
2022/02/11 03:59:18;;;;;;;1.83;1.30;;;17.40;61.50;;;;;;5060560;28;20601;-68
2022/02/11 05:00:30;;;;;;;3.00;1.57;;;17.20;61.30;;;;;;5043886;28;20201;-67
2022/02/11 05:02:59;;;;;;;1.87;1.20;;;17.30;61.40;;;;;;5063873;28;20763;-68
2022/02/11 05:05:29;;;;;;;1.50;0.80;;;17.30;61.30;;;;;;5051204;28;20207;-67
2022/02/11 05:08:03;;;;;;;2.33;1.00;;;17.30;61.30;;;;;;5065194;28;20201;-67
2022/02/11 05:10:32;;;;;;;1.30;0.97;;;17.30;61.30;;;;;;5063209;28;20650;-66
2022/02/11 05:13:02;;;;;;;2.30;1.20;;;17.20;61.10;;;;;;5062078;28;20237;-67
2022/02/11 05:15:32;;;;;;;3.23;1.40;;;17.20;61.10;;;;;;5057339;28;20205;-67
2022/02/11 05:18:15;;;;;;;3.10;1.30;;;17.20;61.10;;;;;;5071495;28;20585;-67
2022/02/11 05:20:54;;;;;;;2.77;1.50;;;17.20;61.00;;;;;;5065402;28;20237;-67
2022/02/11 05:23:23;;;;;;;3.47;1.50;;;17.30;61.10;;;;;;5062532;28;20785;-67
2022/02/11 05:26:07;;;;;;;4.03;1.37;;;17.20;60.90;;;;;;5053546;28;20221;-68
2022/02/11 05:28:37;;;;;;;2.83;1.10;;;17.20;61.20;;;;;;5062758;28;20222;-67
2022/02/11 05:31:06;;;;;;;2.80;1.10;;;17.20;60.70;;;;;;5059277;28;20202;-67
2022/02/11 05:33:34;;;;;;;1.87;1.03;;;17.20;60.70;;;;;;5062399;28;20574;-67
2022/02/11 05:36:09;;;;;;;2.70;1.23;;;17.20;60.60;;;;;;5064808;28;20200;-67
2022/02/11 05:38:36;;;;;;;4.00;1.43;;;17.20;60.60;;;;;;5051966;28;20232;-68
2022/02/11 05:41:10;;;;;;;3.07;1.23;;;17.20;60.40;;;;;;5062553;28;20197;-67
2022/02/11 05:43:43;;;;;;;2.43;1.20;;;17.20;60.50;;;;;;5059802;28;20236;-67
2022/02/11 05:46:16;;;;;;;3.40;1.50;;;17.20;60.50;;;;;;5058202;28;20639;-67
2022/02/11 05:48:46;;;;;;;3.43;1.40;;;17.10;60.20;;;;;;5048567;28;20221;-67
2022/02/11 05:51:15;;;;;;;3.40;1.67;;;17.20;60.20;;;;;;5056391;28;20464;-68
2022/02/11 05:53:43;;;;;;;2.03;1.17;;;17.10;60.10;;;;;;5066176;28;20198;-67
2022/02/11 05:56:12;;;;;;;3.67;1.30;;;17.20;60.20;;;;;;5054913;28;20212;-67
2022/02/11 05:58:41;;;;;;;3.53;1.30;;;17.10;60.00;;;;;;5044223;28;20219;-67
2022/02/11 06:01:14;;;;;;;2.50;1.20;;;17.20;60.10;;;;;;5063361;28;20190;-67
2022/02/11 06:03:46;;;;;;;3.60;1.30;;;17.10;60.00;;;;;;5062608;28;20681;-67
2022/02/11 06:06:15;;;;;;;5.60;1.93;;;17.10;60.10;;;;;;5048113;28;20193;-67
2022/02/11 06:08:47;;;;;;;3.33;1.67;;;17.10;59.80;;;;;;5055731;28;20221;-68
2022/02/11 06:11:17;;;;;;;4.93;1.70;;;17.10;59.60;;;;;;5056767;28;20899;-67
2022/02/11 06:13:50;;;;;;;5.30;2.07;;;17.10;59.50;;;;;;5067680;28;20257;-68
2022/02/11 06:16:30;;;;;;;5.60;2.40;;;17.10;59.60;;;;;;5067717;28;20200;-67
2022/02/11 06:19:00;;;;;;;10.13;2.03;;;17.10;59.40;;;;;;5063347;28;20210;-67
2022/02/11 06:21:29;;;;;;;5.07;1.80;;;17.10;59.40;;;;;;5061316;28;20203;-67
2022/02/11 06:23:59;;;;;;;7.67;2.47;;;17.10;59.40;;;;;;5063125;28;20202;-67
2022/02/11 06:26:29;;;;;;;8.73;2.27;;;17.00;59.50;;;;;;5064332;28;20241;-67
2022/02/11 06:29:11;;;;;;;5.07;2.13;;;17.10;59.50;;;;;;5069575;28;20224;-68
2022/02/11 06:31:45;;;;;;;8.83;2.37;;;17.10;59.40;;;;;;5064269;28;20194;-67
2022/02/11 06:34:16;;;;;;;5.77;2.20;;;17.10;59.10;;;;;;5059496;28;20220;-67
2022/02/11 06:36:46;;;;;;;5.10;2.17;;;17.00;59.10;;;;;;5059564;28;20207;-67
2022/02/11 06:39:14;;;;;;;5.43;2.30;;;17.00;58.90;;;;;;5062676;28;20245;-67
2022/02/11 06:41:43;;;;;;;6.60;2.30;;;17.00;58.60;;;;;;5068447;28;20198;-68
2022/02/11 06:44:12;;;;;;;5.97;2.30;;;17.00;58.70;;;;;;5071873;28;20202;-68
2022/02/11 06:46:41;;;;;;;5.90;2.13;;;17.00;58.70;;;;;;5065277;28;20217;-67
2022/02/11 06:49:12;;;;;;;6.43;2.13;;;17.00;58.80;;;;;;5067580;28;20217;-67
2022/02/11 06:51:40;;;;;;;5.97;2.17;;;17.00;58.90;;;;;;5039064;28;20197;-67
2022/02/11 06:54:11;;;;;;;5.77;2.30;;;17.00;58.60;;;;;;5050190;28;20540;-67
2022/02/11 06:56:43;;;;;;;5.93;2.33;;;17.00;58.10;;;;;;5061000;28;20248;-67
2022/02/11 06:59:13;;;;;;;6.97;2.23;;;17.00;58.20;;;;;;5073273;28;20209;-67
2022/02/11 07:01:41;;;;;;;5.53;2.43;;;17.00;58.10;;;;;;5075538;28;20619;-67
2022/02/11 07:04:12;;;;;;;4.60;1.97;;;16.90;58.00;;;;;;5046134;28;20589;-67
2022/02/11 07:06:42;;;;;;;6.80;2.50;;;16.90;57.50;;;;;;5051731;28;20209;-67
2022/02/11 07:09:13;;;;;;;5.20;2.30;;;16.90;57.80;;;;;;5043890;28;20249;-67
2022/02/11 07:11:45;;;;;;;7.67;2.30;;;16.90;57.70;;;;;;5051813;28;20185;-67
2022/02/11 07:14:13;;;;;;;6.27;2.30;;;16.90;57.80;;;;;;5067920;28;20698;-67
2022/02/11 07:16:56;;;;;;;6.77;2.27;;;16.90;58.00;;;;;;5050850;28;20309;-67
2022/02/11 07:19:26;;;;;;;5.27;2.33;;;16.90;58.00;;;;;;5067364;28;20267;-67
2022/02/11 07:21:53;;;;;;;9.53;2.50;;;16.90;58.20;;;;;;5046981;28;20764;-67
2022/02/11 07:24:24;;;;;;;5.83;2.30;;;16.90;58.00;;;;;;5050223;28;20205;-67
2022/02/11 07:26:56;;;;;;;6.20;2.07;;;16.90;58.00;;;;;;5067991;28;20212;-67
2022/02/11 07:29:25;;;;;;;6.20;2.00;;;16.90;58.10;;;;;;5046205;28;20225;-67
2022/02/11 07:31:58;;;;;;;6.37;2.57;;;16.90;58.00;;;;;;5043164;28;20259;-68
2022/02/11 07:34:27;;;;;;;16.53;4.03;;;16.90;58.10;;;;;;5054667;28;20214;-68
2022/02/11 07:36:56;;;;;;;30.40;6.33;;;16.90;58.40;;;;;;5040949;28;20227;-68
2022/02/11 07:39:47;;;;;;;29.40;6.47;;;16.90;59.50;;;;;;5068791;28;20209;-68
2022/02/11 07:42:19;;;;;;;29.77;7.03;;;16.90;59.10;;;;;;5068284;28;20338;-68
2022/02/11 07:44:49;;;;;;;25.27;6.23;;;16.90;59.10;;;;;;5068402;28;20200;-69
2022/02/11 07:47:21;;;;;;;24.40;6.63;;;16.90;59.00;;;;;;5052072;28;20663;-69
2022/02/11 07:49:54;;;;;;;21.30;6.37;;;16.90;58.90;;;;;;5067056;28;20221;-69
2022/02/11 07:52:21;;;;;;;21.70;6.43;;;16.90;58.80;;;;;;5053504;28;20581;-69
2022/02/11 07:54:54;;;;;;;17.77;5.47;;;16.90;58.90;;;;;;5065504;28;20248;-68
2022/02/11 07:57:24;;;;;;;17.27;5.83;;;16.90;58.90;;;;;;5063087;28;20217;-68
2022/02/11 07:59:52;;;;;;;18.97;5.90;;;16.80;58.70;;;;;;5067609;28;20209;-69
2022/02/11 08:02:21;;;;;;;13.07;5.50;;;16.90;58.60;;;;;;5051416;28;20539;-69
2022/02/11 08:04:51;;;;;;;16.23;4.70;;;16.80;58.40;;;;;;5068034;28;20693;-68
2022/02/11 08:07:20;;;;;;;14.27;4.70;;;16.90;58.50;;;;;;5065450;28;20201;-68
2022/02/11 08:09:49;;;;;;;17.67;5.23;;;16.90;58.60;;;;;;5074573;28;20641;-68
2022/02/11 08:12:20;;;;;;;13.60;4.60;;;16.80;58.60;;;;;;5066474;28;20201;-67
2022/02/11 08:15:04;;;;;;;16.20;4.77;;;16.80;58.60;;;;;;5050446;28;20290;-67
2022/02/11 08:17:32;;;;;;;12.13;4.43;;;16.80;58.50;;;;;;5067700;28;20208;-67
2022/02/11 08:20:00;;;;;;;11.47;3.93;;;16.80;58.50;;;;;;5054794;28;20213;-67
2022/02/11 08:22:30;;;;;;;11.03;4.00;;;16.80;58.40;;;;;;5069225;28;20206;-69
2022/02/11 08:25:00;;;;;;;7.77;3.30;;;16.80;58.40;;;;;;5049528;28;20218;-68
2022/02/11 08:27:30;;;;;;;10.00;4.30;;;16.80;58.20;;;;;;5049346;28;20205;-67
2022/02/11 08:29:59;;;;;;;8.20;3.20;;;16.80;57.90;;;;;;5065396;28;20224;-67
2022/02/11 08:32:30;;;;;;;9.93;3.70;;;16.80;58.00;;;;;;5064833;28;20217;-68
2022/02/11 08:35:03;;;;;;;8.70;3.10;;;16.80;57.90;;;;;;5042448;28;20205;-68
2022/02/11 08:37:34;;;;;;;9.60;3.50;;;16.80;57.90;;;;;;5048046;28;20190;-66
2022/02/11 08:40:06;;;;;;;8.87;3.10;;;16.80;57.90;;;;;;5053314;28;20259;-66
2022/02/11 08:42:38;;;;;;;6.67;2.70;;;16.80;57.80;;;;;;5065256;28;20198;-66
2022/02/11 08:45:10;;;;;;;6.67;2.40;;;16.80;57.70;;;;;;5060727;28;20209;-68
2022/02/11 08:47:40;;;;;;;6.53;2.67;;;16.80;57.90;;;;;;5044526;28;20221;-67
2022/02/11 08:50:18;;;;;;;6.33;2.50;;;16.80;58.00;;;;;;5057684;28;20209;-67
2022/02/11 08:52:45;;;;;;;5.50;2.20;;;16.90;58.80;;;;;;5051773;28;20212;-66
2022/02/11 08:55:19;;;;;;;21.53;2.40;;;17.10;58.60;;;;;;5054381;28;20205;-66
2022/02/11 08:57:52;;;;;;;4.77;2.03;;;17.40;58.60;;;;;;5069174;28;20627;-68
2022/02/11 09:00:21;;;;;;;4.57;2.17;;;17.70;58.50;;;;;;5046559;28;20226;-67
2022/02/11 09:02:53;;;;;;;6.93;2.20;;;17.90;58.00;;;;;;5060501;28;20205;-67
2022/02/11 09:05:24;;;;;;;5.83;2.47;;;18.20;57.70;;;;;;5046545;28;20209;-67
2022/02/11 09:07:59;;;;;;;5.03;1.70;;;18.40;58.20;;;;;;5055329;28;20200;-68
2022/02/11 09:10:32;;;;;;;3.80;2.00;;;18.60;57.30;;;;;;5055464;28;20356;-64
2022/02/11 09:13:04;;;;;;;5.17;1.80;;;18.80;56.90;;;;;;5064083;28;20745;-64
2022/02/11 09:15:32;;;;;;;4.87;2.00;;;19.00;56.60;;;;;;5066965;28;20254;-66
2022/02/11 09:18:04;;;;;;;2.73;1.57;;;19.30;56.20;;;;;;5049788;28;20210;-67
2022/02/11 09:20:34;;;;;;;3.73;1.90;;;19.50;56.60;;;;;;5067970;28;20206;-65
2022/02/11 09:23:04;;;;;;;3.53;1.90;;;19.60;55.40;;;;;;5045207;28;20560;-67
2022/02/11 09:25:36;;;;;;;5.13;1.90;;;19.90;54.80;;;;;;5057038;28;20228;-63
2022/02/11 09:28:09;;;;;;;4.70;1.47;;;20.00;54.30;;;;;;5065064;28;20197;-65
2022/02/11 09:30:42;;;;;;;4.43;1.67;;;20.20;54.40;;;;;;5069300;28;20244;-67
2022/02/11 09:33:16;;;;;;;3.90;1.77;;;20.40;54.20;;;;;;5055645;28;20194;-66
2022/02/11 09:35:49;;;;;;;3.03;1.50;;;20.60;53.90;;;;;;5065812;28;20207;-66
2022/02/11 09:38:24;;;;;;;2.73;1.57;;;20.70;53.80;;;;;;5064623;28;20586;-66
2022/02/11 09:41:11;;;;;;;1.83;1.17;;;20.80;53.50;;;;;;5052468;28;20616;-67
2022/02/11 09:43:38;;;;;;;2.93;1.53;;;20.90;53.30;;;;;;5057625;28;20287;-68
2022/02/11 09:46:13;;;;;;;3.07;1.43;;;21.10;53.10;;;;;;5032733;28;20222;-66
2022/02/11 09:48:40;;;;;;;3.33;1.70;;;21.20;52.90;;;;;;5042319;28;20218;-69
2022/02/11 09:51:13;;;;;;;3.90;2.03;;;21.30;52.60;;;;;;5047337;28;20185;-65
2022/02/11 09:54:21;;;;;;;4.37;1.70;;;21.40;52.00;;;;;;5069681;28;20313;-67
2022/02/11 09:56:52;;;;;;;2.93;1.60;;;21.50;51.90;;;;;;5059115;28;20190;-68
2022/02/11 09:59:23;;;;;;;2.50;1.43;;;21.60;52.00;;;;;;5061352;28;20632;-65
2022/02/11 10:01:52;;;;;;;3.00;1.37;;;21.60;51.90;;;;;;5063498;28;20205;-67
2022/02/11 10:04:22;;;;;;;3.93;1.63;;;21.80;51.80;;;;;;5066177;28;20205;-69
2022/02/11 10:06:52;;;;;;;5.33;1.50;;;21.90;51.70;;;;;;5064674;28;20198;-65
2022/02/11 10:09:23;;;;;;;3.70;1.53;;;22.00;51.60;;;;;;5063660;28;20843;-67
2022/02/11 10:11:57;;;;;;;5.00;1.50;;;22.10;51.50;;;;;;5066534;28;20270;-66
2022/02/11 10:14:36;;;;;;;4.30;1.50;;;22.10;51.30;;;;;;5065618;28;20224;-65
2022/02/11 10:17:23;;;;;;;3.97;1.20;;;22.30;51.10;;;;;;5058254;28;20201;-67
2022/02/11 10:19:56;;;;;;;4.17;1.50;;;22.40;50.90;;;;;;5072213;28;20546;-68
2022/02/11 10:22:38;;;;;;;3.00;1.40;;;22.40;50.40;;;;;;5071167;28;20662;-68
2022/02/11 10:25:07;;;;;;;4.27;1.33;;;22.50;50.20;;;;;;5062234;28;20247;-68
2022/02/11 10:27:40;;;;;;;2.53;1.50;;;22.70;50.10;;;;;;5070049;28;20586;-67
2022/02/11 10:30:22;;;;;;;3.00;1.30;;;22.70;49.90;;;;;;5054714;28;20298;-68
2022/02/11 10:32:56;;;;;;;4.80;1.60;;;22.80;49.60;;;;;;5053678;28;20702;-69
2022/02/11 10:35:26;;;;;;;6.60;1.70;;;23.00;49.70;;;;;;5066550;28;20865;-69
2022/02/11 10:38:14;;;;;;;2.77;1.50;;;23.00;49.00;;;;;;5036484;28;20213;-70
2022/02/11 10:40:42;;;;;;;2.73;1.50;;;23.10;49.50;;;;;;5052742;28;20644;-69
2022/02/11 10:43:26;;;;;;;2.83;1.40;;;23.20;48.80;;;;;;5049165;28;20197;-69
2022/02/11 10:46:04;;;;;;;3.73;1.87;;;23.30;48.70;;;;;;5061698;28;20197;-68
2022/02/11 10:48:37;;;;;;;3.00;1.50;;;23.30;48.30;;;;;;5055655;28;20746;-69
2022/02/11 10:51:21;;;;;;;3.47;1.57;;;23.40;48.30;;;;;;5049132;28;20209;-69
2022/02/11 10:53:51;;;;;;;3.27;1.40;;;23.50;48.30;;;;;;5036208;28;20272;-68
2022/02/11 10:56:22;;;;;;;4.27;1.50;;;23.50;48.10;;;;;;5069023;28;20659;-71
2022/02/11 10:58:56;;;;;;;4.73;1.83;;;23.60;47.80;;;;;;5034053;28;20198;-69
2022/02/11 11:01:36;;;;;;;4.53;2.10;;;23.70;47.80;;;;;;5053994;28;20803;-70
2022/02/11 11:04:07;;;;;;;4.37;1.80;;;23.70;47.70;;;;;;5067784;28;20213;-68
2022/02/11 11:06:40;;;;;;;4.53;1.93;;;23.80;47.60;;;;;;5061136;28;20223;-72
2022/02/11 11:09:10;;;;;;;7.43;1.93;;;23.80;47.30;;;;;;5032623;28;20238;-69
2022/02/11 11:11:44;;;;;;;4.17;1.80;;;23.90;47.10;;;;;;5066913;28;20206;-71
2022/02/11 11:14:16;;;;;;;4.33;1.60;;;23.90;47.30;;;;;;5050624;28;20244;-73
2022/02/11 11:16:52;;;;;;;4.40;2.00;;;23.90;47.20;;;;;;5071980;28;20278;-68
2022/02/11 11:19:22;;;;;;;4.00;1.43;;;24.00;46.90;;;;;;5049681;28;20255;-68
2022/02/11 11:22:14;;;;;;;4.97;1.90;;;24.00;47.00;;;;;;5069339;28;20221;-68
2022/02/11 11:25:01;;;;;;;4.23;1.70;;;24.10;47.00;;;;;;5064782;28;20274;-68
2022/02/11 11:27:57;;;;;;;5.73;2.30;;;24.10;46.70;;;;;;5064405;28;20310;-67
2022/02/11 11:30:40;;;;;;;3.93;1.70;;;24.00;46.80;;;;;;5069013;28;20213;-67
2022/02/11 11:33:16;;;;;;;4.13;1.53;;;23.70;47.10;;;;;;5065974;28;20217;-68
2022/02/11 11:35:58;;;;;;;3.50;1.63;;;23.50;47.60;;;;;;5063449;28;20220;-67
2022/02/11 11:38:58;;;;;;;4.03;1.70;;;23.30;45.80;;;;;;5053494;28;20202;-67
2022/02/11 11:41:33;;;;;;;3.73;1.80;;;22.80;45.80;;;;;;5065549;28;20198;-67
2022/02/11 11:44:27;;;;;;;3.20;1.53;;;22.40;46.60;;;;;;5080502;28;20634;-67
2022/02/11 11:47:03;;;;;;;3.80;1.80;;;22.10;47.10;;;;;;5057740;28;20241;-66
2022/02/11 11:49:47;;;;;;;4.00;1.63;;;21.80;47.80;;;;;;5058593;28;20286;-66
2022/02/11 11:52:20;;;;;;;5.23;1.93;;;21.60;48.30;;;;;;5070848;28;20241;-66
2022/02/11 11:55:15;;;;;;;4.50;1.80;;;21.40;48.50;;;;;;5062666;28;20206;-66
2022/02/11 11:57:43;;;;;;;3.87;1.97;;;21.20;49.00;;;;;;5067694;28;20206;-66
2022/02/11 12:00:41;;;;;;;4.40;1.77;;;21.10;49.10;;;;;;5066086;28;20654;-66
2022/02/11 12:03:13;;;;;;;9.03;1.93;;;21.00;49.40;;;;;;5064622;28;20636;-67
2022/02/11 12:05:59;;;;;;;3.53;1.50;;;20.80;49.40;;;;;;5052853;28;20262;-67
2022/02/11 12:08:36;;;;;;;3.33;1.50;;;20.70;49.80;;;;;;5071179;28;20209;-66
2022/02/11 12:11:04;;;;;;;6.20;1.63;;;20.60;49.90;;;;;;5027365;28;20220;-66
2022/02/11 12:13:36;;;;;;;2.97;1.57;;;20.50;50.30;;;;;;5053152;28;20241;-67
2022/02/11 12:16:12;;;;;;;5.03;1.40;;;20.50;50.50;;;;;;5069899;28;20212;-67
2022/02/11 12:18:47;;;;;;;4.27;1.70;;;20.40;50.80;;;;;;5066877;28;20198;-67
2022/02/11 12:21:16;;;;;;;4.23;1.50;;;20.30;50.70;;;;;;5060086;28;20636;-66
2022/02/11 12:29:41;;;;;;;5.60;1.90;;;20.10;51.10;;;;;;5052288;28;20574;-67
2022/02/11 12:32:18;;;;;;;5.20;1.90;;;20.00;51.10;;;;;;5071397;28;20746;-66
2022/02/11 12:34:51;;;;;;;2.63;1.37;;;20.00;50.70;;;;;;5069372;28;20643;-66
2022/02/11 12:37:22;;;;;;;3.47;1.70;;;19.90;50.90;;;;;;5059642;28;20210;-66
2022/02/11 12:40:06;;;;;;;4.40;1.73;;;19.80;50.90;;;;;;5050541;28;20201;-66
2022/02/11 12:42:51;;;;;;;5.67;2.03;;;19.80;51.40;;;;;;5064671;28;20203;-67
2022/02/11 12:45:28;;;;;;;4.43;1.53;;;19.70;50.50;;;;;;5062438;28;20225;-67
2022/02/11 12:48:13;;;;;;;5.43;1.90;;;19.70;50.50;;;;;;5058263;28;20244;-66
2022/02/11 12:50:53;;;;;;;6.37;2.07;;;19.60;52.10;;;;;;5058379;28;20197;-66
2022/02/11 12:53:28;;;;;;;4.17;1.70;;;19.60;51.60;;;;;;5060520;28;20259;-66
2022/02/11 12:55:58;;;;;;;3.73;1.30;;;19.50;51.60;;;;;;5058402;28;20201;-66
2022/02/11 12:58:27;;;;;;;3.13;1.23;;;19.50;51.20;;;;;;5053336;28;20241;-67
2022/02/11 13:00:56;;;;;;;4.53;1.50;;;19.50;51.40;;;;;;5064919;28;20624;-66
2022/02/11 13:03:26;;;;;;;3.43;1.57;;;19.40;51.50;;;;;;5066857;28;20606;-66
2022/02/11 13:05:55;;;;;;;3.23;1.37;;;19.40;52.00;;;;;;5057741;28;20215;-66
2022/02/11 13:08:28;;;;;;;4.03;1.43;;;19.30;52.10;;;;;;5062249;28;20198;-66
2022/02/11 13:11:04;;;;;;;3.40;1.47;;;19.30;52.40;;;;;;5062790;28;20666;-65
2022/02/11 13:13:36;;;;;;;2.93;1.40;;;19.30;52.40;;;;;;5068219;28;20205;-66
2022/02/11 13:16:05;;;;;;;3.30;1.33;;;19.30;52.40;;;;;;5065976;28;20193;-66
2022/02/11 13:18:38;;;;;;;3.27;1.30;;;19.20;52.20;;;;;;5054563;28;20198;-65
2022/02/11 13:21:10;;;;;;;2.30;1.30;;;19.20;52.30;;;;;;5046168;28;20220;-68
2022/02/11 13:23:43;;;;;;;3.23;1.50;;;19.20;52.60;;;;;;5026700;28;20216;-68
2022/02/11 13:26:17;;;;;;;3.63;1.30;;;19.20;52.90;;;;;;5064313;28;20198;-66
2022/02/11 13:28:51;;;;;;;2.93;1.27;;;19.20;53.10;;;;;;5052898;28;20217;-66
2022/02/11 13:31:19;;;;;;;5.23;1.83;;;19.10;53.20;;;;;;5029069;28;20214;-67
2022/02/11 13:33:46;;;;;;;2.57;1.40;;;19.10;53.30;;;;;;5049898;28;20193;-67
2022/02/11 13:36:25;;;;;;;4.03;1.53;;;19.10;53.20;;;;;;5042944;28;20247;-67
2022/02/11 13:38:52;;;;;;;3.53;1.70;;;19.10;53.30;;;;;;5064665;28;20236;-68
2022/02/11 13:41:29;;;;;;;2.97;1.50;;;19.10;53.50;;;;;;5063755;28;20205;-65
2022/02/11 13:44:08;;;;;;;2.17;1.20;;;19.10;53.60;;;;;;5049582;28;20209;-66
2022/02/11 13:46:55;;;;;;;3.93;1.67;;;19.00;53.40;;;;;;5063523;28;20205;-65
2022/02/11 13:49:25;;;;;;;3.37;1.10;;;19.00;53.30;;;;;;5044821;28;20237;-65
2022/02/11 13:55:01;;;;;;;3.37;1.30;;;19.00;53.60;;;;;;5054565;28;20205;-65
2022/02/11 13:57:28;;;;;;;4.17;1.63;;;19.00;53.70;;;;;;5062233;28;20268;-66
2022/02/11 13:59:55;;;;;;;3.70;1.23;;;18.90;53.40;;;;;;5047176;28;20297;-67
2022/02/11 14:02:28;;;;;;;4.47;1.47;;;18.90;52.50;;;;;;5066365;28;20198;-66
2022/02/11 14:05:07;;;;;;;2.67;1.20;;;18.90;53.40;;;;;;5043146;28;20205;-66
2022/02/11 14:07:37;;;;;;;8.93;2.40;;;18.90;53.80;;;;;;5063243;28;20197;-68
2022/02/11 14:10:18;;;;;;;16.67;4.93;;;18.80;54.80;;;;;;5059890;28;20210;-69
2022/02/11 14:12:47;;;;;;;31.80;8.20;;;18.80;55.30;;;;;;5059190;28;20270;-69
2022/02/11 14:15:16;;;;;;;56.93;13.03;;;18.90;55.90;;;;;;5026391;28;20241;-67
2022/02/11 14:17:45;;;;;;;53.80;13.17;;;18.90;56.00;;;;;;5027231;28;20209;-67
2022/02/11 14:20:15;;;;;;;41.30;11.97;;;18.90;56.20;;;;;;5026268;28;20186;-67
2022/02/11 14:22:46;;;;;;;46.83;11.00;;;18.90;56.10;;;;;;5044258;28;20202;-66
2022/02/11 14:25:17;;;;;;;36.47;9.43;;;18.90;56.40;;;;;;5039261;28;20753;-68
2022/02/11 14:27:50;;;;;;;32.90;9.60;;;18.90;56.40;;;;;;5044389;28;20248;-67
2022/02/11 14:30:25;;;;;;;33.50;9.03;;;19.00;56.70;;;;;;5026307;28;20231;-70
2022/02/11 14:32:54;;;;;;;38.03;8.47;;;19.00;56.50;;;;;;5046756;28;20234;-68
2022/02/11 14:35:22;;;;;;;23.40;7.07;;;19.10;56.20;;;;;;5040735;28;20218;-67
2022/02/11 14:38:06;;;;;;;26.07;7.43;;;19.00;56.20;;;;;;5044209;28;20206;-67
2022/02/11 14:41:45;;;;;;;22.00;6.87;;;19.10;56.40;;;;;;5044998;28;20203;-67
2022/02/11 14:43:32;;;;;;;15.83;5.83;;;19.20;55.90;;;;;;5034868;28;20218;-68
2022/02/11 14:46:03;;;;;;;22.40;5.90;;;19.20;55.90;;;;;;5046962;28;20202;-67
2022/02/11 14:48:34;;;;;;;26.07;7.23;;;19.20;55.50;;;;;;5027191;28;20241;-67
2022/02/11 14:51:16;;;;;;;31.50;8.17;;;19.20;55.30;;;;;;5040447;28;20915;-67
2022/02/11 14:53:46;;;;;;;39.63;8.63;;;19.20;54.90;;;;;;5038226;28;20207;-67
2022/02/11 14:56:18;;;;;;;40.40;9.90;;;19.20;54.80;;;;;;5026674;28;20203;-66
2022/02/11 14:59:02;;;;;;;29.77;7.73;;;19.20;54.60;;;;;;5050012;28;20202;-65
2022/02/11 15:01:30;;;;;;;27.93;6.80;;;19.20;54.50;;;;;;5044332;28;20214;-67
2022/02/11 15:04:02;;;;;;;21.27;6.23;;;19.10;54.40;;;;;;5046558;28;20202;-68
2022/02/11 15:06:34;;;;;;;17.70;5.70;;;19.10;54.40;;;;;;5047146;28;20194;-67
2022/02/11 15:09:06;;;;;;;18.17;5.47;;;19.10;54.30;;;;;;5030615;28;20203;-68
2022/02/11 15:11:39;;;;;;;16.67;5.20;;;19.00;54.30;;;;;;5031220;28;20234;-65
2022/02/11 15:14:13;;;;;;;16.43;4.90;;;19.10;54.10;;;;;;5053740;28;20249;-69
2022/02/11 15:16:51;;;;;;;19.13;5.40;;;19.00;54.70;;;;;;5052938;28;20303;-69
2022/02/11 15:19:24;;;;;;;13.37;4.67;;;19.20;55.10;;;;;;5060910;28;20193;-70
2022/02/11 15:21:56;;;;;;;11.73;4.30;;;19.50;54.80;;;;;;5067824;28;20213;-66
2022/02/11 15:24:27;;;;;;;8.90;4.33;;;19.70;54.70;;;;;;5059457;28;20592;-67
2022/02/11 15:26:55;;;;;;;11.27;4.23;;;20.00;54.60;;;;;;5047274;28;20290;-69
2022/02/11 15:29:40;;;;;;;11.43;4.03;;;20.20;54.40;;;;;;5065494;28;20295;-67
2022/02/11 15:32:15;;;;;;;12.37;4.00;;;20.40;54.00;;;;;;5049178;28;20198;-68
2022/02/11 15:34:45;;;;;;;10.23;3.93;;;20.70;53.80;;;;;;5051675;28;20198;-68
2022/02/11 15:37:16;;;;;;;9.80;3.40;;;20.80;53.60;;;;;;5061530;28;20221;-67
2022/02/11 15:39:47;;;;;;;7.90;3.30;;;21.00;53.30;;;;;;5066337;28;20194;-69
2022/02/11 15:42:16;;;;;;;9.37;3.33;;;21.10;53.20;;;;;;5068658;28;20256;-70
2022/02/11 15:44:45;;;;;;;7.13;3.10;;;21.30;53.00;;;;;;5072289;28;20213;-72
2022/02/11 15:47:17;;;;;;;7.90;2.90;;;21.40;52.80;;;;;;5042976;28;20795;-68
2022/02/11 15:49:46;;;;;;;6.60;2.93;;;21.60;52.50;;;;;;5066091;28;20209;-67
2022/02/11 15:52:18;;;;;;;5.33;2.90;;;21.60;52.90;;;;;;5064969;28;20206;-65
2022/02/11 15:54:49;;;;;;;6.00;2.47;;;21.50;52.80;;;;;;5066435;28;20221;-68
2022/02/11 15:57:21;;;;;;;7.10;3.27;;;21.40;52.90;;;;;;5046570;28;20186;-66
2022/02/11 15:59:50;;;;;;;8.27;2.83;;;21.30;53.10;;;;;;5045036;28;21201;-68
2022/02/11 16:02:24;;;;;;;6.03;2.50;;;21.20;53.60;;;;;;5047128;28;20206;-69
2022/02/11 16:04:53;;;;;;;6.10;2.80;;;21.10;51.00;;;;;;5065585;28;20217;-69
2022/02/11 16:07:27;;;;;;;3.77;2.00;;;20.90;51.40;;;;;;5059003;28;20198;-70
2022/02/11 16:09:57;;;;;;;5.20;2.27;;;20.70;51.60;;;;;;5054982;28;20657;-70
2022/02/11 16:12:33;;;;;;;5.20;2.30;;;20.60;51.70;;;;;;5043061;28;20216;-67
2022/02/11 16:15:12;;;;;;;6.30;2.20;;;20.50;51.80;;;;;;5053405;28;20260;-67
2022/02/11 16:17:59;;;;;;;7.97;2.20;;;20.40;52.70;;;;;;5058812;28;20255;-66
2022/02/11 16:20:39;;;;;;;4.00;2.00;;;20.30;52.20;;;;;;5047261;28;20201;-66
2022/02/11 16:23:10;;;;;;;5.90;1.80;;;20.20;52.60;;;;;;5051317;28;20711;-66
2022/02/11 16:25:39;;;;;;;5.43;1.67;;;20.10;52.70;;;;;;5058104;28;20509;-66
2022/02/11 16:28:15;;;;;;;3.77;1.90;;;20.00;52.80;;;;;;5033421;28;20296;-66
2022/02/11 16:30:47;;;;;;;4.30;2.03;;;20.00;53.00;;;;;;5054383;28;20221;-66
2022/02/11 16:33:16;;;;;;;4.03;1.80;;;19.90;53.20;;;;;;5044695;28;20192;-67
2022/02/11 16:35:48;;;;;;;4.40;1.90;;;19.90;53.50;;;;;;5058737;28;20232;-66
2022/02/11 16:38:19;;;;;;;4.47;2.20;;;19.80;53.70;;;;;;5037541;28;20206;-66
2022/02/11 16:40:48;;;;;;;4.40;2.03;;;19.80;53.90;;;;;;5060981;28;20276;-66
2022/02/11 16:43:21;;;;;;;4.13;2.10;;;19.70;54.00;;;;;;5057045;28;20328;-66
2022/02/11 16:45:51;;;;;;;4.20;1.60;;;19.70;54.20;;;;;;5055259;28;20679;-66
2022/02/11 16:48:19;;;;;;;3.47;1.90;;;19.60;54.30;;;;;;5058133;28;20216;-67
2022/02/11 16:50:52;;;;;;;4.50;1.73;;;19.50;54.30;;;;;;5069035;28;20225;-66
2022/02/11 16:53:30;;;;;;;5.67;2.03;;;19.50;54.50;;;;;;5043811;28;20662;-66
2022/02/11 16:56:21;;;;;;;4.43;1.80;;;19.50;54.60;;;;;;5071469;28;20208;-66
2022/02/11 16:58:54;;;;;;;4.50;2.20;;;19.40;54.70;;;;;;5045184;28;20217;-66
2022/02/11 17:01:24;;;;;;;7.53;2.30;;;19.40;54.90;;;;;;5039216;28;20213;-66